Time;durP1;ratioP1;P1;durP2;ratioP2;P2;SDS_P1;SDS_P2;PMS_P1;PMS_P2;Temp;Humidity;BMP_temperature;BMP_pressure;BME280_temperature;BME280_humidity;BME280_pressure;Samples;Min_cycle;Max_cycle;Signal;HPM_P1;HPM_P2
2022/05/04 00:00:25;;;;;;;;;;;;;;;18.93;78.57;99097.06;5062785;28;19926;-37
2022/05/04 00:02:50;;;;;;;;;;;;;;;18.86;78.61;99096.66;5063312;28;19926;-37
2022/05/04 00:05:15;;;;;;;;;;;;;;;18.87;78.36;99092.25;5064154;28;20483;-37
2022/05/04 00:07:40;;;;;;;;;;;;;;;18.72;78.65;99097.47;5064016;28;20471;-37
2022/05/04 00:10:06;;;;;;;;;;;;;;;18.64;78.57;99091.94;5062133;28;19920;-37
2022/05/04 00:12:32;;;;;;;;;;;;;;;18.64;78.98;99097.16;5063453;28;19916;-37
2022/05/04 00:14:57;;;;;;;;;;;;;;;18.73;78.57;99099.16;5065901;28;20039;-37
2022/05/04 00:17:23;;;;;;;;;;;;;;;18.59;79.15;99086.19;5063962;28;19927;-37
2022/05/04 00:19:48;;;;;;;;;;;;;;;18.56;79.85;99088.97;5060792;28;19951;-37
2022/05/04 00:22:17;;;;;;;;;;;;;;;18.60;79.19;99087.84;5064275;28;19959;-37
2022/05/04 00:24:42;;;;;;;;;;;;;;;18.38;78.71;99081.38;5062427;28;19947;-36
2022/05/04 00:27:07;;;;;;;;;;;;;;;18.48;77.91;99086.84;5046389;28;20389;-37
2022/05/04 00:29:32;;;;;;;;;;;;;;;18.33;78.78;99082.59;5062253;28;20019;-37
2022/05/04 00:31:58;;;;;;;;;;;;;;;18.24;78.89;99089.22;5062699;28;19920;-37
2022/05/04 00:34:23;;;;;;;;;;;;;;;18.21;79.62;99084.19;5063550;28;19946;-37
2022/05/04 00:36:48;;;;;;;;;;;;;;;18.30;78.79;99086.22;5061342;28;20007;-37
2022/05/04 00:39:13;;;;;;;;;;;;;;;18.13;80.03;99084.69;5066604;28;19921;-37
2022/05/04 00:41:39;;;;;;;;;;;;;;;18.06;80.69;99087.75;5063467;28;20415;-38
2022/05/04 00:44:04;;;;;;;;;;;;;;;18.20;79.72;99087.75;5065209;28;20579;-37
2022/05/04 00:46:29;;;;;;;;;;;;;;;18.05;80.57;99088.69;5044947;28;19916;-37
2022/05/04 00:48:54;;;;;;;;;;;;;;;18.09;80.36;99084.97;5063012;28;19920;-37
2022/05/04 00:51:20;;;;;;;;;;;;;;;18.07;80.65;99089.44;5063246;28;19920;-37
2022/05/04 00:53:45;;;;;;;;;;;;;;;18.07;80.49;99081.63;5062437;28;19920;-37
2022/05/04 00:56:11;;;;;;;;;;;;;;;18.05;81.40;99083.47;5058905;28;19930;-37
2022/05/04 00:58:55;;;;;;;;;;;;;;;17.94;81.81;99090.16;5062335;28;19959;-37
2022/05/04 01:01:20;;;;;;;;;;;;;;;17.84;81.37;99090.84;5062678;28;19920;-37
2022/05/04 01:03:46;;;;;;;;;;;;;;;17.84;84.81;99091.66;5061534;28;20402;-37
2022/05/04 01:06:12;;;;;;;;;;;;;;;17.42;88.31;99085.44;5060552;28;19916;-37
2022/05/04 01:08:37;;;;;;;;;;;;;;;17.74;85.17;99085.28;5063233;28;20456;-37
2022/05/04 01:11:02;;;;;;;;;;;;;;;17.69;83.78;99082.97;5059431;28;19920;-37
2022/05/04 01:13:28;;;;;;;;;;;;;;;17.82;82.80;99080.50;5061134;28;19919;-37
2022/05/04 01:15:53;;;;;;;;;;;;;;;17.68;82.54;99076.09;5060977;28;20445;-37
2022/05/04 01:18:18;;;;;;;;;;;;;;;17.55;83.03;99078.59;5058950;28;20655;-37
2022/05/04 01:20:43;;;;;;;;;;;;;;;17.59;82.85;99081.84;5063048;28;20774;-37
2022/05/04 01:23:09;;;;;;;;;;;;;;;17.68;82.47;99080.47;5061093;28;19979;-37
2022/05/04 01:25:34;;;;;;;;;;;;;;;17.54;83.19;99084.72;5065706;28;20404;-37
2022/05/04 01:28:01;;;;;;;;;;;;;;;17.53;83.12;99083.03;5061524;28;20318;-37
2022/05/04 01:30:27;;;;;;;;;;;;;;;17.47;83.61;99086.03;5062534;28;19920;-37
2022/05/04 01:32:52;;;;;;;;;;;;;;;17.46;84.30;99086.94;5066009;28;19931;-37
2022/05/04 01:35:17;;;;;;;;;;;;;;;17.55;83.98;99089.00;5060951;28;19932;-37
2022/05/04 01:37:42;;;;;;;;;;;;;;;17.62;84.40;99086.03;5059692;28;20771;-37
2022/05/04 01:40:08;;;;;;;;;;;;;;;17.47;84.21;99090.38;5062354;28;19927;-37
2022/05/04 01:42:33;;;;;;;;;;;;;;;17.52;84.22;99091.78;5063202;28;20003;-37
2022/05/04 01:44:58;;;;;;;;;;;;;;;17.40;84.50;99081.25;5061786;28;19920;-37
2022/05/04 01:47:24;;;;;;;;;;;;;;;17.40;85.44;99083.84;5061924;28;19920;-37
2022/05/04 01:49:49;;;;;;;;;;;;;;;17.42;84.39;99087.22;5060919;28;19916;-37
2022/05/04 01:52:14;;;;;;;;;;;;;;;17.38;84.51;99086.56;5063733;28;19920;-37
2022/05/04 01:54:40;;;;;;;;;;;;;;;17.39;84.51;99083.03;5061738;28;20396;-37
2022/05/04 01:57:05;;;;;;;;;;;;;;;17.43;84.53;99081.91;5061846;28;19921;-37
2022/05/04 01:59:30;;;;;;;;;;;;;;;17.25;84.83;99083.84;5059933;28;20453;-37
2022/05/04 02:01:55;;;;;;;;;;;;;;;17.22;84.62;99075.34;5061862;28;20745;-37
2022/05/04 02:04:21;;;;;;;;;;;;;;;17.08;85.42;99081.34;5063910;28;19959;-37
2022/05/04 02:06:47;;;;;;;;;;;;;;;17.05;85.92;99081.53;5061327;28;19927;-37
2022/05/04 02:09:12;;;;;;;;;;;;;;;16.96;88.93;99079.47;5061599;28;19921;-38
2022/05/04 02:11:37;;;;;;;;;;;;;;;16.96;87.38;99077.69;5060345;28;19964;-37
2022/05/04 02:14:03;;;;;;;;;;;;;;;17.06;87.14;99068.44;5061010;28;19960;-37
2022/05/04 02:16:28;;;;;;;;;;;;;;;17.02;87.83;99074.75;5065075;28;20389;-37
2022/05/04 02:18:54;;;;;;;;;;;;;;;17.22;86.72;99072.75;5062312;28;19917;-37
2022/05/04 02:21:19;;;;;;;;;;;;;;;16.92;89.49;99082.25;5060462;28;19966;-37
2022/05/04 02:23:44;;;;;;;;;;;;;;;16.94;89.99;99079.53;5061149;28;19981;-37
2022/05/04 02:26:10;;;;;;;;;;;;;;;17.09;90.04;99078.66;5061671;28;19916;-37
2022/05/04 02:28:35;;;;;;;;;;;;;;;17.16;89.55;99067.91;5042873;28;19923;-37
2022/05/04 02:31:00;;;;;;;;;;;;;;;17.13;88.81;99074.97;5059741;28;20510;-37
2022/05/04 02:33:25;;;;;;;;;;;;;;;17.07;89.20;99070.13;5060146;28;19924;-37
2022/05/04 02:38:35;;;;;;;;;;;;;;;17.08;89.23;99071.81;5061353;28;19946;-37
2022/05/04 02:41:00;;;;;;;;;;;;;;;17.01;88.92;99075.66;5063174;28;19928;-37
2022/05/04 02:43:26;;;;;;;;;;;;;;;17.05;88.23;99066.75;5061308;28;19916;-37
2022/05/04 02:45:51;;;;;;;;;;;;;;;16.97;89.01;99075.94;5062968;28;19921;-37
2022/05/04 02:48:17;;;;;;;;;;;;;;;16.93;89.47;99072.69;5060592;28;19924;-37
2022/05/04 02:50:42;;;;;;;;;;;;;;;16.79;90.01;99072.59;5062097;28;19917;-37
2022/05/04 02:53:07;;;;;;;;;;;;;;;16.75;90.60;99074.53;5063544;28;19924;-38
2022/05/04 02:55:32;;;;;;;;;;;;;;;16.77;91.03;99069.25;5059914;28;19958;-37
2022/05/04 02:57:58;;;;;;;;;;;;;;;16.68;91.04;99068.81;5059742;28;19970;-37
2022/05/04 03:00:25;;;;;;;;;;;;;;;16.55;91.51;99072.19;5059301;28;19974;-37
2022/05/04 03:02:50;;;;;;;;;;;;;;;16.55;91.07;99070.44;5060674;28;19963;-37
2022/05/04 03:05:16;;;;;;;;;;;;;;;16.51;90.72;99067.19;5060004;28;19928;-37
2022/05/04 03:07:41;;;;;;;;;;;;;;;16.30;92.77;99063.97;5061726;28;19920;-37
2022/05/04 03:10:07;;;;;;;;;;;;;;;16.48;91.43;99059.53;5061623;28;19974;-37
2022/05/04 03:12:32;;;;;;;;;;;;;;;16.43;91.10;99053.75;5063191;28;19931;-37
2022/05/04 03:14:58;;;;;;;;;;;;;;;16.47;90.75;99050.06;5065111;28;19924;-37
2022/05/04 03:17:23;;;;;;;;;;;;;;;16.49;90.81;99042.19;5064998;28;19926;-37
2022/05/04 03:19:48;;;;;;;;;;;;;;;16.38;90.56;99049.75;5064384;28;20785;-37
2022/05/04 03:22:13;;;;;;;;;;;;;;;16.44;90.04;99049.38;5065385;28;19920;-37
2022/05/04 03:24:39;;;;;;;;;;;;;;;16.11;91.01;99050.31;5066318;28;20025;-37
2022/05/04 03:27:04;;;;;;;;;;;;;;;16.38;90.60;99055.78;5064341;28;20020;-37
2022/05/04 03:29:29;;;;;;;;;;;;;;;16.26;91.56;99057.28;5063544;28;20014;-37
2022/05/04 03:31:55;;;;;;;;;;;;;;;16.38;90.56;99052.34;5064166;28;19920;-37
2022/05/04 03:34:20;;;;;;;;;;;;;;;16.15;90.62;99059.63;5065545;28;19946;-37
2022/05/04 03:36:46;;;;;;;;;;;;;;;16.28;90.48;99051.97;5063988;28;19920;-37
2022/05/04 03:39:11;;;;;;;;;;;;;;;16.18;91.51;99059.44;5063409;28;20424;-37
2022/05/04 03:41:36;;;;;;;;;;;;;;;16.28;90.63;99058.03;5064930;28;20437;-38
2022/05/04 03:44:02;;;;;;;;;;;;;;;16.26;90.62;99052.09;5064230;28;20389;-38
2022/05/04 03:46:27;;;;;;;;;;;;;;;16.13;90.71;99051.06;5067269;28;19924;-37
2022/05/04 03:48:58;;;;;;;;;;;;;;;16.09;90.72;99054.75;5064227;28;19924;-38
2022/05/04 03:51:23;;;;;;;;;;;;;;;15.96;91.03;99053.72;5061337;28;19923;-38
2022/05/04 03:53:49;;;;;;;;;;;;;;;15.83;91.97;99054.38;5061029;28;19920;-38
2022/05/04 03:56:15;;;;;;;;;;;;;;;15.97;91.72;99056.25;5063134;28;19920;-37
2022/05/04 03:58:40;;;;;;;;;;;;;;;15.91;91.68;99055.72;5067793;28;19920;-38
2022/05/04 04:01:05;;;;;;;;;;;;;;;15.94;92.27;99060.75;5063050;28;20344;-37
2022/05/04 04:03:31;;;;;;;;;;;;;;;15.93;92.16;99049.53;5063161;28;19920;-37
2022/05/04 04:05:56;;;;;;;;;;;;;;;15.98;92.02;99046.69;5064210;28;19920;-37
2022/05/04 04:08:21;;;;;;;;;;;;;;;15.94;92.65;99050.38;5063630;28;20360;-37
2022/05/04 04:10:47;;;;;;;;;;;;;;;14.97;96.13;99045.75;5063680;28;20477;-37
2022/05/04 04:13:12;;;;;;;;;;;;;;;14.12;100.00;99054.06;5064051;28;19920;-37
2022/05/04 04:15:37;;;;;;;;;;;;;;;14.15;100.00;99061.69;5063912;28;19924;-37
2022/05/04 04:18:02;;;;;;;;;;;;;;;14.02;100.00;99060.56;5060414;28;19928;-37
2022/05/04 04:23:11;;;;;;;;;;;;;;;15.33;100.00;99059.56;5064611;28;20404;-37
2022/05/04 04:25:37;;;;;;;;;;;;;;;15.53;98.20;99055.94;5066654;28;19920;-37
2022/05/04 04:28:02;;;;;;;;;;;;;;;15.39;97.54;99060.06;5064216;28;19924;-37
2022/05/04 04:30:27;;;;;;;;;;;;;;;15.86;96.39;99050.78;5065285;28;19927;-37
2022/05/04 04:32:52;;;;;;;;;;;;;;;16.00;94.85;99045.69;5063065;28;20926;-37
2022/05/04 04:35:18;;;;;;;;;;;;;;;15.95;95.28;99052.06;5067513;28;19916;-37
2022/05/04 04:37:43;;;;;;;;;;;;;;;15.92;95.27;99049.59;5064752;28;19929;-37
2022/05/04 04:40:08;;;;;;;;;;;;;;;15.46;100.00;99058.88;5061618;28;19985;-37
2022/05/04 04:42:34;;;;;;;;;;;;;;;15.48;100.00;99067.38;5063852;28;20039;-37
2022/05/04 04:44:59;;;;;;;;;;;;;;;15.85;98.17;99057.75;5065040;28;20313;-37
2022/05/04 04:47:25;;;;;;;;;;;;;;;15.92;97.02;99058.25;5063391;28;20269;-37
2022/05/04 04:49:51;;;;;;;;;;;;;;;16.00;96.47;99060.44;5066563;28;19920;-37
2022/05/04 04:52:16;;;;;;;;;;;;;;;15.98;95.77;99067.47;5065433;28;19920;-37
2022/05/04 04:54:41;;;;;;;;;;;;;;;16.11;95.70;99068.50;5064491;28;19923;-37
2022/05/04 04:57:06;;;;;;;;;;;;;;;15.37;100.00;99080.09;5064533;28;19924;-37
2022/05/04 04:59:31;;;;;;;;;;;;;;;15.65;100.00;99081.28;5062578;28;19916;-37
2022/05/04 05:01:57;;;;;;;;;;;;;;;15.79;100.00;99072.81;5066250;28;19959;-37
2022/05/04 05:04:22;;;;;;;;;;;;;;;15.73;100.00;99084.31;5064841;28;19999;-37
2022/05/04 05:06:47;;;;;;;;;;;;;;;15.92;100.00;99085.97;5066054;28;20011;-37
2022/05/04 05:09:13;;;;;;;;;;;;;;;16.01;99.71;99077.69;5065759;28;19916;-37
2022/05/04 05:11:38;;;;;;;;;;;;;;;16.22;98.21;99081.75;5063769;28;19926;-37
2022/05/04 05:16:48;;;;;;;;;;;;;;;16.02;96.50;99079.38;5062997;28;19989;-45
2022/05/04 05:19:13;;;;;;;;;;;;;;;16.43;96.90;99073.72;5062531;28;19923;-44
2022/05/04 05:21:38;;;;;;;;;;;;;;;16.70;96.62;99071.34;5063126;28;19968;-42
2022/05/04 05:24:04;;;;;;;;;;;;;;;16.76;96.23;99064.94;5062465;28;19916;-42
2022/05/04 05:26:29;;;;;;;;;;;;;;;17.08;96.88;99068.34;5061607;28;19924;-45
2022/05/04 05:28:54;;;;;;;;;;;;;;;17.38;96.37;99063.13;5064921;28;19917;-43
2022/05/04 05:31:19;;;;;;;;;;;;;;;17.43;96.07;99066.31;5063820;28;19917;-42
2022/05/04 05:33:46;;;;;;;;;;;;;;;17.27;96.93;99060.31;5063464;28;19916;-44
2022/05/04 05:36:11;;;;;;;;;;;;;;;17.07;98.72;99058.88;5063269;28;19920;-42
2022/05/04 05:38:37;;;;;;;;;;;;;;;17.31;96.22;99061.78;5062626;28;19948;-42
2022/05/04 05:41:02;;;;;;;;;;;;;;;16.84;100.00;99062.78;5062499;28;19931;-42
2022/05/04 05:43:28;;;;;;;;;;;;;;;16.58;99.05;99057.28;5063161;28;19956;-44
2022/05/04 05:45:53;;;;;;;;;;;;;;;16.88;98.76;99059.09;5061628;28;19917;-43
2022/05/04 05:48:20;;;;;;;;;;;;;;;15.35;100.00;99079.31;5061530;28;19923;-43
2022/05/04 05:50:45;;;;;;;;;;;;;;;14.73;100.00;99080.63;5061707;28;20453;-42
2022/05/04 05:53:10;;;;;;;;;;;;;;;14.68;100.00;99082.63;5061790;28;19916;-44
2022/05/04 05:55:35;;;;;;;;;;;;;;;14.90;100.00;99078.09;5062330;28;20000;-44
2022/05/04 05:58:01;;;;;;;;;;;;;;;15.20;100.00;99083.50;5067079;28;19962;-44
2022/05/04 06:00:26;;;;;;;;;;;;;;;14.58;100.00;99090.81;5062064;28;19963;-44
2022/05/04 06:02:52;;;;;;;;;;;;;;;13.94;100.00;99088.56;5062762;28;19918;-43
2022/05/04 06:05:17;;;;;;;;;;;;;;;13.99;100.00;99086.59;5061718;28;19920;-43
2022/05/04 06:07:42;;;;;;;;;;;;;;;14.30;100.00;99088.66;5062263;28;20459;-43
2022/05/04 06:10:07;;;;;;;;;;;;;;;13.54;100.00;99092.88;5044066;28;19927;-43
2022/05/04 06:12:33;;;;;;;;;;;;;;;13.67;100.00;99083.69;5065766;28;19928;-41
2022/05/04 06:14:59;;;;;;;;;;;;;;;13.80;100.00;99084.81;5064295;28;19959;-43
2022/05/04 06:17:24;;;;;;;;;;;;;;;13.59;100.00;99090.91;5062685;28;19947;-43
2022/05/04 06:19:49;;;;;;;;;;;;;;;13.77;100.00;99090.13;5063572;28;20035;-42
2022/05/04 06:22:15;;;;;;;;;;;;;;;13.77;100.00;99084.94;5064255;28;19916;-43
2022/05/04 06:24:40;;;;;;;;;;;;;;;13.57;100.00;99092.72;5065013;28;19916;-42
2022/05/04 06:27:05;;;;;;;;;;;;;;;13.37;100.00;99091.84;5065958;28;20002;-42
2022/05/04 06:35:03;;;;;;;;;;;;;;;13.52;100.00;99098.09;5060319;28;19995;-42
2022/05/04 06:37:28;;;;;;;;;;;;;;;13.38;100.00;99095.25;5061965;28;19920;-42
2022/05/04 06:39:53;;;;;;;;;;;;;;;13.19;100.00;99098.59;5062693;28;19979;-43
2022/05/04 06:42:19;;;;;;;;;;;;;;;13.39;100.00;99102.97;5060511;28;19959;-44
2022/05/04 06:44:44;;;;;;;;;;;;;;;13.81;100.00;99104.63;5063838;28;19959;-42
2022/05/04 06:47:09;;;;;;;;;;;;;;;13.84;100.00;99103.63;5067953;28;19920;-43
2022/05/04 06:49:35;;;;;;;;;;;;;;;14.21;100.00;99097.69;5070252;28;20375;-42
2022/05/04 06:52:00;;;;;;;;;;;;;;;14.66;100.00;99098.22;5067548;28;20360;-42
2022/05/04 06:54:25;;;;;;;;;;;;;;;15.30;100.00;99093.44;5067109;28;20668;-43
2022/05/04 06:56:50;;;;;;;;;;;;;;;15.40;100.00;99099.84;5067632;28;20258;-43
2022/05/04 06:59:15;;;;;;;;;;;;;;;16.25;100.00;99094.56;5069451;28;21153;-43
2022/05/04 07:01:41;;;;;;;;;;;;;;;15.37;100.00;99098.25;5066491;28;20465;-43
2022/05/04 07:04:06;;;;;;;;;;;;;;;15.41;100.00;99102.34;5066506;28;20870;-44
2022/05/04 07:06:31;;;;;;;;;;;;;;;15.23;100.00;99111.06;5065409;28;20384;-44
2022/05/04 07:08:56;;;;;;;;;;;;;;;15.22;100.00;99109.38;5065658;28;21039;-43
2022/05/04 07:11:22;;;;;;;;;;;;;;;15.17;100.00;99111.38;5066341;28;20434;-42
2022/05/04 07:13:47;;;;;;;;;;;;;;;15.36;100.00;99117.31;5065920;28;19970;-42
2022/05/04 07:16:12;;;;;;;;;;;;;;;15.80;100.00;99110.81;5066613;28;19927;-43
2022/05/04 07:18:37;;;;;;;;;;;;;;;15.60;100.00;99119.59;5067423;28;19920;-46
2022/05/04 07:21:03;;;;;;;;;;;;;;;17.26;100.00;99100.28;5065489;28;19921;-43
2022/05/04 07:23:28;;;;;;;;;;;;;;;17.63;100.00;99100.72;5065318;28;19921;-42
2022/05/04 07:25:54;;;;;;;;;;;;;;;18.02;100.00;99097.53;5065978;28;20003;-43
2022/05/04 07:28:19;;;;;;;;;;;;;;;18.31;100.00;99090.50;5065918;28;19942;-43
2022/05/04 07:30:45;;;;;;;;;;;;;;;17.96;100.00;99095.28;5066569;28;19915;-42
2022/05/04 07:33:10;;;;;;;;;;;;;;;18.26;100.00;99095.16;5065730;28;19916;-45
2022/05/04 07:35:35;;;;;;;;;;;;;;;17.45;100.00;99094.84;5062891;28;19916;-42
2022/05/04 07:38:01;;;;;;;;;;;;;;;18.77;100.00;99084.16;5067708;28;20634;-42
2022/05/04 07:43:10;;;;;;;;;;;;;;;18.21;100.00;99094.63;5062349;28;19962;-43
2022/05/04 07:45:35;;;;;;;;;;;;;;;18.43;100.00;99094.13;5065036;28;19941;-42
2022/05/04 07:48:01;;;;;;;;;;;;;;;19.09;100.00;99092.53;5064571;28;19916;-43
2022/05/04 07:50:28;;;;;;;;;;;;;;;18.81;100.00;99094.31;5065639;28;19920;-42
2022/05/04 07:52:53;;;;;;;;;;;;;;;18.46;100.00;99098.31;5065679;28;19916;-43
2022/05/04 07:55:19;;;;;;;;;;;;;;;18.18;100.00;99100.03;5064203;28;19943;-45
2022/05/04 07:57:47;;;;;;;;;;;;;;;19.35;100.00;99087.34;5066909;28;19919;-46
2022/05/04 08:05:41;;;;;;;;;;;;;;;18.55;100.00;99098.56;5066013;28;19944;-44
2022/05/04 08:08:06;;;;;;;;;;;;;;;17.82;100.00;99093.53;5065419;28;20297;-42
2022/05/04 08:10:31;;;;;;;;;;;;;;;17.52;100.00;99102.22;5066330;28;19977;-43
2022/05/04 08:12:58;;;;;;;;;;;;;;;17.76;100.00;99106.88;5063821;28;20635;-44
2022/05/04 08:15:23;;;;;;;;;;;;;;;18.07;100.00;99110.28;5063013;28;19932;-43
2022/05/04 08:17:49;;;;;;;;;;;;;;;18.15;100.00;99105.41;5063569;28;19916;-44
2022/05/04 08:20:14;;;;;;;;;;;;;;;17.46;100.00;99107.75;5066108;28;19934;-46
2022/05/04 08:22:40;;;;;;;;;;;;;;;18.43;100.00;99099.34;5063639;28;19916;-43
2022/05/04 08:25:05;;;;;;;;;;;;;;;17.40;100.00;99108.13;5062618;28;19921;-44
2022/05/04 08:27:32;;;;;;;;;;;;;;;18.42;100.00;99102.88;5063976;28;20013;-44
2022/05/04 08:29:58;;;;;;;;;;;;;;;19.53;100.00;99096.56;5066943;28;19931;-43
2022/05/04 08:32:26;;;;;;;;;;;;;;;19.15;100.00;99097.34;5062577;28;19916;-42
2022/05/04 08:34:51;;;;;;;;;;;;;;;19.54;99.93;99087.78;5064732;28;19930;-43
2022/05/04 08:37:17;;;;;;;;;;;;;;;19.20;98.84;99100.50;5064017;28;19912;-42
2022/05/04 08:39:42;;;;;;;;;;;;;;;18.45;100.00;99107.91;5064668;28;20000;-43
2022/05/04 08:42:08;;;;;;;;;;;;;;;19.12;100.00;99107.16;5064881;28;19946;-44
2022/05/04 08:44:33;;;;;;;;;;;;;;;19.69;98.12;99098.19;5062852;28;19928;-43
2022/05/04 08:46:59;;;;;;;;;;;;;;;19.29;100.00;99104.25;5062210;28;20003;-43
2022/05/04 08:49:24;;;;;;;;;;;;;;;19.13;100.00;99109.66;5062401;28;20030;-44
2022/05/04 08:51:49;;;;;;;;;;;;;;;18.86;100.00;99107.09;5064003;28;20350;-43
2022/05/04 08:54:15;;;;;;;;;;;;;;;19.49;100.00;99100.31;5065537;28;19990;-43
2022/05/04 08:56:40;;;;;;;;;;;;;;;18.23;100.00;99113.63;5062228;28;20007;-42
2022/05/04 08:59:06;;;;;;;;;;;;;;;18.81;100.00;99115.19;5065376;28;19917;-43
2022/05/04 09:01:31;;;;;;;;;;;;;;;18.19;100.00;99114.72;5063306;28;19927;-42
2022/05/04 09:03:57;;;;;;;;;;;;;;;18.39;100.00;99116.94;5064259;28;19916;-43
2022/05/04 09:06:27;;;;;;;;;;;;;;;20.00;100.00;99104.72;5063541;28;19916;-43
2022/05/04 09:08:53;;;;;;;;;;;;;;;19.22;100.00;99106.44;5064052;28;20549;-44
2022/05/04 09:11:19;;;;;;;;;;;;;;;18.87;100.00;99110.53;5063509;28;20027;-46
2022/05/04 09:13:48;;;;;;;;;;;;;;;21.07;92.06;99091.00;5064209;28;20014;-44
2022/05/04 09:16:32;;;;;;;;;;;;;;;19.06;100.00;99107.56;5064775;28;20008;-43
2022/05/04 09:19:07;;;;;;;;;;;;;;;19.49;100.00;99099.50;5062539;28;19924;-45
2022/05/04 09:21:32;;;;;;;;;;;;;;;20.22;96.62;99104.91;5064999;28;19924;-43
2022/05/04 09:23:58;;;;;;;;;;;;;;;21.67;88.00;99095.25;5063888;28;19920;-44
2022/05/04 09:26:23;;;;;;;;;;;;;;;19.90;97.56;99109.78;5064070;28;20423;-42
2022/05/04 09:28:51;;;;;;;;;;;;;;;20.44;91.91;99093.78;5065968;28;19917;-42
2022/05/04 09:31:18;;;;;;;;;;;;;;;22.20;83.91;99085.97;5064430;28;19915;-42
2022/05/04 09:33:43;;;;;;;;;;;;;;;22.66;77.49;99098.09;5061070;28;20032;-43
2022/05/04 09:36:08;;;;;;;;;;;;;;;20.87;89.18;99093.34;5063478;28;20977;-42
2022/05/04 09:46:49;;;;;;;;;;;;;;;22.49;76.45;99084.53;5063037;28;20755;-43
2022/05/04 09:49:16;;;;;;;;;;;;;;;21.22;84.92;99084.66;5060031;28;20428;-43
2022/05/04 09:51:43;;;;;;;;;;;;;;;21.39;88.32;99082.53;5062842;28;20023;-45
2022/05/04 09:54:13;;;;;;;;;;;;;;;20.93;89.10;99086.78;5062623;28;19920;-46
2022/05/04 09:56:38;;;;;;;;;;;;;;;20.89;94.45;99086.19;5061993;28;19924;-45
2022/05/04 09:59:03;;;;;;;;;;;;;;;22.76;83.61;99084.09;5063765;28;19916;-44
2022/05/04 10:01:28;;;;;;;;;;;;;;;24.73;68.49;99074.47;5044191;28;19920;-44
2022/05/04 10:03:54;;;;;;;;;;;;;;;21.13;88.13;99098.44;5062074;28;19970;-44
2022/05/04 10:06:23;;;;;;;;;;;;;;;21.42;90.77;99077.13;5063908;28;19916;-46
2022/05/04 10:08:48;;;;;;;;;;;;;;;23.00;83.24;99080.44;5062476;28;20505;-44
2022/05/04 10:11:14;;;;;;;;;;;;;;;23.58;72.10;99072.09;5063610;28;19927;-44
2022/05/04 10:13:39;;;;;;;;;;;;;;;22.61;77.61;99080.06;5062735;28;19920;-44
2022/05/04 10:16:08;;;;;;;;;;;;;;;21.66;90.08;99079.63;5065344;28;19924;-46
2022/05/04 10:18:33;;;;;;;;;;;;;;;22.75;79.78;99082.41;5061488;28;19923;-45
2022/05/04 10:21:11;;;;;;;;;;;;;;;22.52;84.66;99076.41;5065335;28;19975;-45
2022/05/04 10:23:37;;;;;;;;;;;;;;;23.03;78.05;99068.84;5066628;28;19920;-45
2022/05/04 10:26:03;;;;;;;;;;;;;;;24.33;69.34;99070.06;5064143;28;20035;-47
2022/05/04 10:28:31;;;;;;;;;;;;;;;25.37;64.37;99060.72;5066270;28;20128;-46
2022/05/04 10:30:59;;;;;;;;;;;;;;;23.32;76.28;99064.63;5066490;28;19916;-43
2022/05/04 10:33:25;;;;;;;;;;;;;;;21.87;81.67;99072.75;5067223;28;19924;-47
2022/05/04 10:35:50;;;;;;;;;;;;;;;22.05;78.91;99067.00;5061562;28;19916;-45
2022/05/04 10:38:17;;;;;;;;;;;;;;;22.43;78.56;99074.50;5066374;28;20013;-45
2022/05/04 10:40:43;;;;;;;;;;;;;;;22.88;78.91;99071.75;5068791;28;19920;-45
2022/05/04 10:43:18;;;;;;;;;;;;;;;22.45;77.44;99069.97;5063776;28;19931;-45
2022/05/04 10:45:44;;;;;;;;;;;;;;;21.87;83.34;99074.53;5067914;28;19916;-45
2022/05/04 10:48:13;;;;;;;;;;;;;;;23.23;75.01;99065.41;5067456;28;20069;-47
2022/05/04 10:51:11;;;;;;;;;;;;;;;23.24;75.31;99060.97;5066860;28;19916;-45
2022/05/04 10:53:38;;;;;;;;;;;;;;;22.74;81.49;99066.81;5011719;28;19920;-45
2022/05/04 10:56:05;;;;;;;;;;;;;;;23.26;72.07;99064.31;5064652;28;19920;-45
2022/05/04 10:58:30;;;;;;;;;;;;;;;24.61;65.94;99052.72;5066274;28;19916;-46
2022/05/04 11:01:00;;;;;;;;;;;;;;;22.43;81.95;99061.38;5065128;28;19931;-46
2022/05/04 11:03:25;;;;;;;;;;;;;;;21.38;83.43;99062.53;5083614;28;20361;-48
2022/05/04 11:05:51;;;;;;;;;;;;;;;22.29;81.42;99052.00;5069253;28;19962;-38
2022/05/04 11:08:25;;;;;;;;;;;;;;;25.18;68.26;99045.78;5065514;28;19990;-38
2022/05/04 11:10:51;;;;;;;;;;;;;;;25.12;61.56;99050.75;5066133;28;20531;-38
2022/05/04 11:13:16;;;;;;;;;;;;;;;24.36;67.83;99044.31;5062957;28;19916;-38
2022/05/04 11:15:50;;;;;;;;;;;;;;;25.41;64.22;99040.19;5067192;28;19923;-38
2022/05/04 11:18:19;;;;;;;;;;;;;;;26.28;55.98;99039.81;5067407;28;20011;-38
2022/05/04 11:20:47;;;;;;;;;;;;;;;26.89;53.13;99037.44;5067764;28;19928;-38
2022/05/04 11:23:12;;;;;;;;;;;;;;;25.64;57.81;99040.66;5064674;28;19956;-38
2022/05/04 11:25:38;;;;;;;;;;;;;;;22.39;70.63;99033.72;5069041;28;20381;-38
2022/05/04 11:28:03;;;;;;;;;;;;;;;23.63;72.84;99038.38;5065306;28;20399;-38
2022/05/04 11:30:28;;;;;;;;;;;;;;;23.87;75.27;99040.72;5064231;28;20373;-38
2022/05/04 11:32:54;;;;;;;;;;;;;;;25.54;69.85;99029.31;5064460;28;19916;-38
2022/05/04 11:35:19;;;;;;;;;;;;;;;24.03;67.57;99042.84;5065059;28;19920;-38
2022/05/04 11:37:44;;;;;;;;;;;;;;;23.97;66.64;99040.75;5066106;28;19923;-38
2022/05/04 11:40:14;;;;;;;;;;;;;;;23.19;72.74;99035.06;5066326;28;19931;-38
2022/05/04 11:42:40;;;;;;;;;;;;;;;24.37;68.91;99032.00;5067596;28;19916;-38
2022/05/04 11:45:05;;;;;;;;;;;;;;;25.57;62.39;99024.59;5065116;28;19974;-38
2022/05/04 11:47:31;;;;;;;;;;;;;;;24.70;69.35;99020.28;5058729;28;19920;-38
2022/05/04 11:49:56;;;;;;;;;;;;;;;22.81;74.21;99033.84;5061827;28;19917;-38
2022/05/04 11:52:21;;;;;;;;;;;;;;;24.29;68.66;99022.16;5062722;28;19925;-38
2022/05/04 11:54:46;;;;;;;;;;;;;;;24.08;68.82;99030.13;5063383;28;19915;-38
2022/05/04 11:57:12;;;;;;;;;;;;;;;25.37;58.47;99018.53;5063395;28;19916;-38
2022/05/04 11:59:37;;;;;;;;;;;;;;;22.90;72.77;99032.25;5060003;28;19927;-38
2022/05/04 12:02:03;;;;;;;;;;;;;;;23.74;72.85;99022.56;5062942;28;19925;-38
2022/05/04 12:04:28;;;;;;;;;;;;;;;24.11;73.02;99014.09;5066618;28;19920;-38
2022/05/04 12:06:54;;;;;;;;;;;;;;;23.92;70.28;99017.47;5060225;28;19924;-38
2022/05/04 12:09:19;;;;;;;;;;;;;;;21.65;73.59;99013.28;5062116;28;21061;-38
2022/05/04 12:11:44;;;;;;;;;;;;;;;22.02;76.50;99026.13;5060060;28;19927;-38
2022/05/04 12:14:10;;;;;;;;;;;;;;;22.55;70.49;99015.78;5061883;28;19916;-38
2022/05/04 12:16:35;;;;;;;;;;;;;;;23.01;69.03;99013.81;5063199;28;19927;-38
2022/05/04 12:19:01;;;;;;;;;;;;;;;23.52;68.92;99014.81;5063130;28;19916;-38
2022/05/04 12:21:26;;;;;;;;;;;;;;;24.61;60.63;99006.13;5059022;28;19924;-38
2022/05/04 12:23:52;;;;;;;;;;;;;;;22.26;77.16;99012.91;5063386;28;19927;-38
2022/05/04 12:26:17;;;;;;;;;;;;;;;21.76;79.46;99009.84;5063414;28;19916;-44
2022/05/04 12:28:43;;;;;;;;;;;;;;;22.05;78.05;99011.94;5064713;28;20450;-48
2022/05/04 12:33:53;;;;;;;;;;;;;;;23.13;72.37;99004.09;5062389;28;20625;-44
2022/05/04 12:36:18;;;;;;;;;;;;;;;21.69;78.90;99008.63;5058516;28;20042;-44
2022/05/04 12:38:47;;;;;;;;;;;;;;;21.49;82.88;99010.19;5062155;28;19919;-47
2022/05/04 12:41:15;;;;;;;;;;;;;;;21.55;83.72;99006.25;5060995;28;19930;-44
2022/05/04 12:43:40;;;;;;;;;;;;;;;22.41;77.41;98989.81;5066356;28;19912;-44
2022/05/04 12:46:09;;;;;;;;;;;;;;;23.22;69.60;98990.19;5061738;28;19931;-46
2022/05/04 12:48:35;;;;;;;;;;;;;;;21.92;74.40;98993.75;5065378;28;20550;-47
2022/05/04 12:51:00;;;;;;;;;;;;;;;22.17;79.28;98982.13;5061150;28;20395;-45
2022/05/04 12:53:26;;;;;;;;;;;;;;;21.81;80.88;98997.19;5062577;28;20034;-48
2022/05/04 12:58:35;;;;;;;;;;;;;;;22.18;77.07;98989.03;5057792;28;20468;-47
2022/05/04 13:01:01;;;;;;;;;;;;;;;21.25;75.34;98987.50;5060974;28;20011;-45
2022/05/04 13:03:26;;;;;;;;;;;;;;;22.90;68.19;98980.53;5061809;28;20030;-48
2022/05/04 13:05:51;;;;;;;;;;;;;;;22.60;76.73;98989.16;5061513;28;19920;-44
2022/05/04 13:08:16;;;;;;;;;;;;;;;22.44;73.14;98981.72;5064585;28;19920;-45
2022/05/04 13:10:42;;;;;;;;;;;;;;;24.28;64.58;98977.53;5062348;28;19924;-46